Latest Weather Observations for Cairns Racecourse

IDQ60801

Issued at 5:32 pm EST Monday 27 June 2016 (issued every 30 minutes, with the page automatically refreshed every 10 minutes)

About weather observations | Map of weather stations | Latest weather observations for QLD | Other Formats
Station Details ID: 031222 Name: CAIRNS RACECOURSE Lat: -16.95 Lon: 145.75 Height: 4.1 m
Data from the previous 72 hours. | See also: Recent months at Cairns Racecourse
Date/Time
EST
Temp
°C
App
Temp
°C
Dew
Point
°C
Rel
Hum
%
Delta-T
°C
Wind Press
QNH
hPa
Press
MSL
hPa
Rain since
9am
mm
Dir  Spd
km/h
Gust
km/h
Spd
kts
Gust
kts
27/05:30pm 24.9 28.9 21.4 81 2.3 WNW 2 9 1 5 - - 0.0
27/05:00pm 27.1 30.3 21.2 70 3.9 NW 6 7 3 4 - - 0.0
27/04:30pm 27.3 31.4 21.6 71 3.8 N 2 7 1 4 - - 0.0
27/04:00pm 26.8 30.4 22.0 75 3.2 N 6 9 3 5 - - 0.0
27/03:30pm 25.7 27.8 20.9 75 3.2 NW 11 15 6 8 - - 0.0
27/03:00pm 25.4 28.2 21.5 79 2.6 NW 9 13 5 7 - - 0.0
27/02:30pm 25.5 27.7 21.8 80 2.5 NW 13 20 7 11 - - 0.0
27/02:00pm 24.9 27.9 22.0 84 1.9 NW 9 13 5 7 - - 0.0
27/01:30pm 24.4 27.0 21.9 86 1.7 WNW 11 13 6 7 - - 0.0
27/01:00pm 25.2 28.8 22.3 84 1.9 NNE 7 13 4 7 - - 0.0
27/12:30pm 25.1 27.1 21.6 81 2.3 E 13 19 7 10 - - 0.0
27/12:00pm 26.4 30.1 22.5 79 2.6 E 7 11 4 6 - - 0.0
27/11:30am 26.2 29.3 22.1 78 2.7 SE 9 11 5 6 - - 0.0
27/11:00am 25.8 29.3 22.1 80 2.5 S 7 13 4 7 - - 0.0
27/10:30am 25.4 28.6 22.3 83 2.1 S 9 13 5 7 - - 0.0
27/10:00am 24.8 27.8 21.9 84 1.9 S 9 13 5 7 - - 0.0
27/09:30am 24.2 27.7 22.1 88 1.4 S 7 11 4 6 - - 0.0
27/09:00am 24.0 28.0 22.1 89 1.3 SSE 4 7 2 4 - - 0.4
27/08:30am 23.5 28.1 21.8 90 1.1 CALM 0 0 0 0 - - 0.4
27/08:00am 23.2 27.5 22.0 93 0.8 SSW 2 7 1 4 - - 0.4
27/07:30am 22.9 27.6 21.9 94 0.7 CALM 0 6 0 3 - - 0.4
27/07:00am 22.7 27.4 21.9 95 0.5 CALM 0 0 0 0 - - 0.4
27/06:30am 22.6 27.2 21.8 95 0.5 CALM 0 0 0 0 - - 0.4
27/06:00am 22.5 27.1 21.7 95 0.5 CALM 0 0 0 0 - - 0.4
27/05:30am 22.5 26.3 21.7 95 0.5 SW 4 7 2 4 - - 0.4
27/05:00am 22.4 25.8 21.6 95 0.5 S 6 7 3 4 - - 0.4
27/04:30am 22.5 26.3 21.7 95 0.5 S 4 7 2 4 - - 0.4
27/04:00am 22.4 25.8 21.6 95 0.5 SSE 6 9 3 5 - - 0.4
27/03:30am 22.5 25.3 21.5 94 0.7 S 9 11 5 6 - - 0.4
27/03:00am 22.5 27.0 21.5 94 0.7 CALM 0 0 0 0 - - 0.4
27/02:30am 22.5 25.8 21.5 94 0.7 S 6 9 3 5 - - 0.4
27/02:00am 22.5 25.6 21.5 94 0.7 S 7 11 4 6 - - 0.4
27/01:30am 22.4 26.8 21.4 94 0.7 CALM 0 0 0 0 - - 0.4
27/01:00am 22.5 25.4 21.1 92 0.9 SE 7 13 4 7 - - 0.4
27/12:30am 22.7 26.0 21.5 93 0.8 SE 6 11 3 6 - - 0.4
27/12:00am 22.5 27.0 21.5 94 0.7 CALM 0 0 0 0 - - 0.4
 
Date/Time
EST
Temp
°C
App
Temp
°C
Dew
Point
°C
Rel
Hum
%
Delta-T
°C
Wind Press
QNH
hPa
Press
MSL
hPa
Rain since
9am
mm
Dir  Spd
km/h
Gust
km/h
Spd
kts
Gust
kts
26/11:30pm 22.1 25.5 20.9 93 0.8 S 4 7 2 4 - - 0.4
26/11:00pm 22.4 26.2 21.0 92 0.9 S 2 6 1 3 - - 0.4
26/10:30pm 22.5 25.4 21.1 92 0.9 SSW 7 11 4 6 - - 0.4
26/10:00pm 22.6 25.6 21.2 92 0.9 SSE 7 11 4 6 - - 0.4
26/09:30pm 22.9 24.8 21.4 91 1.0 S 13 17 7 9 - - 0.4
26/09:00pm 22.7 25.0 21.3 92 0.9 S 11 19 6 10 - - 0.4
26/08:30pm 22.6 24.8 21.1 91 1.0 S 11 17 6 9 - - 0.4
26/08:00pm 23.0 25.3 21.3 90 1.1 S 11 15 6 8 - - 0.4
26/07:30pm 23.2 24.7 21.3 89 1.2 S 15 20 8 11 - - 0.4
26/07:00pm 23.4 24.5 21.3 88 1.4 S 17 22 9 12 - - 0.4
26/06:30pm 23.9 25.5 21.4 86 1.6 S 15 20 8 11 - - 0.4
26/06:00pm 24.4 27.1 22.1 87 1.5 S 11 15 6 8 - - 0.4
26/05:30pm 24.8 28.3 22.1 85 1.8 SSE 7 9 4 5 - - 0.4
26/05:00pm 25.2 28.9 22.5 85 1.8 SE 7 11 4 6 - - 0.4
26/04:30pm 25.4 29.9 22.3 83 2.1 S 2 7 1 4 - - 0.4
26/04:00pm 25.5 29.6 23.0 86 1.7 W 6 7 3 4 - - 0.4
26/03:30pm 24.9 29.0 23.0 89 1.3 NNW 6 9 3 5 - - 0.4
26/03:00pm 25.0 28.9 22.9 88 1.4 NW 7 9 4 5 - - 0.4
26/02:30pm 25.1 28.7 22.4 85 1.8 NNW 7 11 4 6 - - 0.0
26/02:00pm 26.3 29.5 22.4 79 2.6 SSE 9 13 5 7 - - 0.0
26/01:30pm 26.4 29.6 22.3 78 2.8 SSE 9 13 5 7 - - 0.0
26/01:00pm 26.2 29.4 22.3 79 2.6 S 9 15 5 8 - - 0.0
26/12:30pm 26.4 28.7 22.0 77 2.9 S 13 17 7 9 - - 0.0
26/12:00pm 26.1 29.0 22.4 80 2.5 SSE 11 17 6 9 - - 0.0
26/11:30am 25.6 28.7 22.1 81 2.3 SSE 9 15 5 8 - - 0.0
26/11:00am 25.4 28.4 21.9 81 2.3 SSE 9 13 5 7 - - 0.0
26/10:30am 24.9 28.3 22.0 84 1.9 SSE 7 11 4 6 - - 0.0
26/10:00am 24.1 26.3 21.2 84 1.9 SSE 11 15 6 8 - - 0.0
26/09:30am 23.9 26.2 21.4 86 1.6 SE 11 17 6 9 - - 0.0
26/09:00am 23.8 26.5 22.1 90 1.1 SSE 11 17 6 9 - - 0.4
26/08:30am 22.7 25.2 21.7 94 0.7 SE 11 17 6 9 - - 0.4
26/08:00am 22.0 24.7 21.3 96 0.5 S 9 15 5 8 - - 0.4
26/07:30am 21.9 24.9 21.2 96 0.5 SE 7 11 4 6 - - 0.4
26/07:00am 21.6 24.6 20.9 96 0.5 SSE 6 9 3 5 - - 0.4
26/06:30am 21.6 24.4 20.8 95 0.5 S 7 13 4 7 - - 0.4
26/06:00am 21.7 24.1 20.9 95 0.5 S 9 13 5 7 - - 0.4
26/05:30am 21.7 24.6 20.7 94 0.6 S 6 9 3 5 - - 0.4
26/05:00am 21.6 24.3 20.6 94 0.6 SSE 7 11 4 6 - - 0.4
26/04:30am 21.7 24.0 20.7 94 0.6 SSE 9 13 5 7 - - 0.4
26/04:00am 21.5 23.8 20.7 95 0.5 SSE 9 13 5 7 - - 0.4
26/03:30am 21.3 23.9 20.5 95 0.5 SE 7 11 4 6 - - 0.2
26/03:00am 21.3 23.5 20.5 95 0.5 S 9 13 5 7 - - 0.2
26/02:30am 21.4 23.9 20.2 93 0.8 S 7 11 4 6 - - 0.0
26/02:00am 21.7 23.8 20.2 91 1.0 SSE 9 13 5 7 - - 0.0
26/01:30am 21.7 23.8 20.2 91 1.0 SSE 9 13 5 7 - - 0.0
26/01:00am 21.7 22.9 20.0 90 1.1 S 13 17 7 9 - - 0.0
26/12:30am 21.7 23.7 20.0 90 1.1 S 9 13 5 7 - - 0.0
26/12:00am 21.8 22.9 19.7 88 1.3 S 13 17 7 9 - - 0.0
 
Date/Time
EST
Temp
°C
App
Temp
°C
Dew
Point
°C
Rel
Hum
%
Delta-T
°C
Wind Press
QNH
hPa
Press
MSL
hPa
Rain since
9am
mm
Dir  Spd
km/h
Gust
km/h
Spd
kts
Gust
kts
25/11:30pm 21.7 23.3 20.0 90 1.1 S 11 17 6 9 - - 0.0
25/11:00pm 22.4 23.9 19.8 85 1.7 S 11 15 6 8 - - 0.0
25/10:30pm 22.5 23.8 19.3 82 2.0 S 11 15 6 8 - - 0.0
25/10:00pm 22.5 24.1 19.1 81 2.2 SSW 9 13 5 7 - - 0.0
25/09:30pm 22.2 23.7 19.0 82 2.0 S 9 15 5 8 - - 0.0
25/09:00pm 22.2 23.3 18.8 81 2.1 S 11 15 6 8 - - 0.0
25/08:30pm 22.5 23.1 18.7 79 2.4 S 13 19 7 10 - - 0.0
25/08:00pm 22.7 23.7 18.7 78 2.5 S 11 19 6 10 - - 0.0
25/07:30pm 23.0 23.9 18.5 76 2.8 S 11 20 6 11 - - 0.0
25/07:00pm 23.2 23.4 18.5 75 3.0 SSE 15 24 8 13 - - 0.0
25/06:30pm 23.6 23.8 18.5 73 3.2 SSE 15 22 8 12 - - 0.0
25/06:00pm 23.7 23.7 18.1 71 3.5 SSE 15 24 8 13 - - 0.0
25/05:30pm 24.1 24.1 18.1 69 3.8 S 15 24 8 13 - - 0.0
25/05:00pm 24.5 24.2 18.2 68 4.0 SSW 17 24 9 13 - - 0.0
25/04:30pm 24.9 26.4 19.7 73 3.4 SE 11 15 6 8 - - 0.0
25/04:00pm 25.3 26.8 19.7 71 3.6 SE 11 17 6 9 - - 0.0
25/03:30pm 25.7 27.6 19.8 70 3.8 ESE 9 13 5 7 - - 0.0
25/03:00pm 25.8 26.8 19.4 67 4.1 ESE 13 17 7 9 - - 0.0
25/02:30pm 26.5 27.2 18.9 63 4.9 SE 13 17 7 9 - - 0.0
25/02:00pm 27.1 27.2 18.4 59 5.5 SSE 15 22 8 12 - - 0.0
25/01:30pm 27.4 27.8 18.9 59 5.5 SSE 15 22 8 12 - - 0.0
25/01:00pm 26.8 27.3 19.2 63 4.9 E 15 20 8 11 - - 0.0
25/12:30pm 26.7 27.4 18.8 62 5.1 E 13 20 7 11 - - 0.0
25/12:00pm 26.5 26.6 18.4 61 5.1 ESE 15 20 8 11 - - 0.0
25/11:30am 27.6 27.0 17.5 54 6.4 SSE 17 28 9 15 - - 0.0
25/11:00am 27.4 26.9 17.8 55 6.1 S 17 26 9 14 - - 0.0
25/10:30am 26.5 25.7 18.1 60 5.3 SSE 19 28 10 15 - - 0.0
25/10:00am 26.1 26.7 20.2 70 3.8 SSE 17 26 9 14 - - 0.0
25/09:30am 25.9 27.4 21.3 76 3.0 S 15 22 8 12 - - 0.0
25/09:00am 24.4 26.3 21.3 83 2.0 S 13 17 7 9 - - 0.0
25/08:30am 23.8 26.8 21.9 89 1.3 S 9 13 5 7 - - 0.0
25/08:00am 22.8 26.2 22.0 95 0.5 S 7 9 4 5 - - 0.0
25/07:30am 22.2 25.6 21.7 97 0.3 SSW 6 9 3 5 - - 0.0
25/07:00am 21.8 24.8 21.3 97 0.3 S 7 9 4 5 - - 0.0
25/06:30am 21.1 25.1 20.6 97 0.3 CALM 0 0 0 0 - - 0.0
25/06:00am 21.3 25.3 20.6 96 0.5 CALM 0 0 0 0 - - 0.0
25/05:30am 21.3 24.2 20.6 96 0.5 SSW 6 7 3 4 - - 0.0
25/05:00am 21.6 24.6 20.9 96 0.5 SSW 6 7 3 4 - - 0.0
25/04:30am 21.9 24.9 21.2 96 0.5 SSW 7 11 4 6 - - 0.0
25/04:00am 21.8 24.9 21.0 95 0.5 S 6 7 3 4 - - 0.0
25/03:30am 22.3 25.5 21.6 96 0.5 SSW 7 11 4 6 - - 0.0
25/03:00am 22.4 26.1 21.4 94 0.7 SSE 4 9 2 5 - - 0.0
25/02:30am 22.8 26.0 21.6 93 0.8 S 7 9 4 5 - - 0.0
25/02:00am 23.3 26.9 22.3 94 0.7 SSE 7 11 4 6 - - 0.0
25/01:30am 23.4 27.2 22.4 94 0.7 SE 6 7 3 4 - - 0.0
25/01:00am 23.6 27.2 22.4 93 0.8 SSE 7 9 4 5 - - 0.0
25/12:30am 23.8 27.6 22.8 94 0.7 S 7 11 4 6 - - 0.0
25/12:00am 23.2 26.7 22.2 94 0.7 S 7 9 4 5 - - 0.0
 
Date/Time
EST
Temp
°C
App
Temp
°C
Dew
Point
°C
Rel
Hum
%
Delta-T
°C
Wind Press
QNH
hPa
Press
MSL
hPa
Rain since
9am
mm
Dir  Spd
km/h
Gust
km/h
Spd
kts
Gust
kts
24/11:30pm 23.3 26.8 22.1 93 0.8 SSW 7 9 4 5 - - 0.0
24/11:00pm 23.6 28.4 22.2 92 0.9 CALM 0 0 0 0 - - 0.0
24/10:30pm 23.8 28.0 22.4 92 0.9 S 4 7 2 4 - - 0.0
24/10:00pm 24.1 28.0 22.5 91 1.1 S 6 9 3 5 - - 0.0
24/09:30pm 24.2 27.9 22.3 89 1.3 SSW 6 7 3 4 - - 0.0
24/09:00pm 24.7 28.5 22.8 89 1.3 S 7 11 4 6 - - 0.0
24/08:30pm 24.6 28.0 22.7 89 1.3 SSW 9 11 5 6 - - 0.0
24/08:00pm 25.0 28.5 22.9 88 1.4 S 9 13 5 7 - - 0.0
24/07:30pm 25.2 28.6 22.7 86 1.7 SSE 9 15 5 8 - - 0.0
24/07:00pm 25.2 28.3 22.1 83 2.1 S 9 13 5 7 - - 0.0
24/06:30pm 25.6 28.0 22.3 82 2.2 SE 13 20 7 11 - - 0.0
24/06:00pm 26.0 29.6 22.3 80 2.5 SSW 7 13 4 7 - - 0.0

Other Formats:

Comma delimited format used in spreadsheet applications
http://www.bom.gov.au/fwo/IDQ60801/IDQ60801.94288.axf

JavaScript Object Notation format (JSON) in row-major order
http://www.bom.gov.au/fwo/IDQ60801/IDQ60801.94288.json